Clay, Texas
Current Conditions -  °F | °C
As of 3:35 AM on Friday 28 Nov 2014 (Local Time) from K11R Reporting Station
Haze Haze  
Wind Chill: 44°   Ceiling: Unl
Heat Index: 44°   Visibility: 5mi
Dew Point: 37°   Wind: 0mph
Humidity: 75%   Direction: NA
Pressure: 30.37"   Gusts: NA
Location:  30.39°N, 96.34°W
Report Text: K11R 280935Z AUTO 00000KT 5SM HZ CLR 07/03 A3037 RMK AO2 T00670025
Loading
Personal Weather Stations






























Interactive Weather Map New forecast layout! Learn more

10-Day Weather Forecast

Advertisements
Track Severe Weather on mobile